sensor_id;sensor_type;location;lat;lon;timestamp;pressure;altitude;pressure_sealevel;temperature;humidity
84528;BME280;74768;51.152;6.196;2024-02-21T00:00:38;101636.97;;;8.84;86.59
84528;BME280;74768;51.152;6.196;2024-02-21T00:03:04;101626.50;;;8.79;86.84
84528;BME280;74768;51.152;6.196;2024-02-21T00:05:30;101627.38;;;8.78;87.80
84528;BME280;74768;51.152;6.196;2024-02-21T00:07:55;101628.34;;;8.76;87.55
84528;BME280;74768;51.152;6.196;2024-02-21T00:10:21;101626.50;;;8.78;86.99
84528;BME280;74768;51.152;6.196;2024-02-21T00:12:46;101624.78;;;8.77;87.63
84528;BME280;74768;51.152;6.196;2024-02-21T00:15:13;101615.09;;;8.79;86.71
84528;BME280;74768;51.152;6.196;2024-02-21T00:17:38;101614.34;;;8.72;87.33
84528;BME280;74768;51.152;6.196;2024-02-21T00:20:03;101605.56;;;8.73;87.38
84528;BME280;74768;51.152;6.196;2024-02-21T00:22:29;101603.84;;;8.71;87.31
84528;BME280;74768;51.152;6.196;2024-02-21T00:24:56;101602.06;;;8.73;87.04
84528;BME280;74768;51.152;6.196;2024-02-21T00:27:23;101592.38;;;8.75;87.01
84528;BME280;74768;51.152;6.196;2024-02-21T00:29:48;101597.63;;;8.76;87.56
84528;BME280;74768;51.152;6.196;2024-02-21T00:32:14;101602.75;;;8.82;87.10
84528;BME280;74768;51.152;6.196;2024-02-21T00:34:39;101597.53;;;8.79;86.68
84528;BME280;74768;51.152;6.196;2024-02-21T00:37:04;101592.28;;;8.78;87.50
84528;BME280;74768;51.152;6.196;2024-02-21T00:39:30;101600.19;;;8.78;87.49
84528;BME280;74768;51.152;6.196;2024-02-21T00:41:56;101576.59;;;8.73;87.39
84528;BME280;74768;51.152;6.196;2024-02-21T00:44:21;101586.25;;;8.74;87.29
84528;BME280;74768;51.152;6.196;2024-02-21T00:46:46;101584.41;;;8.78;86.95
84528;BME280;74768;51.152;6.196;2024-02-21T00:49:12;101589.78;;;8.72;87.72
84528;BME280;74768;51.152;6.196;2024-02-21T00:51:37;101588.00;;;8.74;87.82
84528;BME280;74768;51.152;6.196;2024-02-21T00:54:03;101589.72;;;8.76;87.78
84528;BME280;74768;51.152;6.196;2024-02-21T00:56:28;101573.94;;;8.75;87.72
84528;BME280;74768;51.152;6.196;2024-02-21T00:58:55;101585.22;;;8.81;86.72
84528;BME280;74768;51.152;6.196;2024-02-21T01:01:24;101578.00;;;8.91;86.69
84528;BME280;74768;51.152;6.196;2024-02-21T01:03:50;101578.97;;;8.85;86.96
84528;BME280;74768;51.152;6.196;2024-02-21T01:06:16;101572.91;;;8.83;87.20
84528;BME280;74768;51.152;6.196;2024-02-21T01:08:41;101565.69;;;8.91;87.21
84528;BME280;74768;51.152;6.196;2024-02-21T01:11:06;101558.81;;;8.84;86.51
84528;BME280;74768;51.152;6.196;2024-02-21T01:13:32;101559.69;;;8.85;87.34
84528;BME280;74768;51.152;6.196;2024-02-21T01:15:58;101541.41;;;8.77;87.63
84528;BME280;74768;51.152;6.196;2024-02-21T01:18:23;101548.38;;;8.81;86.98
84528;BME280;74768;51.152;6.196;2024-02-21T01:20:48;101551.06;;;8.77;87.07
84528;BME280;74768;51.152;6.196;2024-02-21T01:23:13;101547.44;;;8.84;87.27
84528;BME280;74768;51.152;6.196;2024-02-21T01:25:39;101536.16;;;8.77;86.89
84528;BME280;74768;51.152;6.196;2024-02-21T01:28:04;101540.53;;;8.77;87.63
84528;BME280;74768;51.152;6.196;2024-02-21T01:30:30;101534.53;;;8.70;87.26
84528;BME280;74768;51.152;6.196;2024-02-21T01:32:55;101531.88;;;8.73;88.34
84528;BME280;74768;51.152;6.196;2024-02-21T01:35:20;101542.38;;;8.73;87.14
84528;BME280;74768;51.152;6.196;2024-02-21T01:37:46;101531.00;;;8.73;86.99
84528;BME280;74768;51.152;6.196;2024-02-21T01:40:11;101523.97;;;8.73;87.47
84528;BME280;74768;51.152;6.196;2024-02-21T01:42:40;101518.56;;;8.79;86.70
84528;BME280;74768;51.152;6.196;2024-02-21T01:45:08;101514.13;;;8.83;87.12
84528;BME280;74768;51.152;6.196;2024-02-21T01:47:34;101522.97;;;8.79;87.45
84528;BME280;74768;51.152;6.196;2024-02-21T01:50:00;101504.69;;;8.73;87.03
84528;BME280;74768;51.152;6.196;2024-02-21T01:52:28;101506.41;;;8.74;87.20
84528;BME280;74768;51.152;6.196;2024-02-21T01:54:53;101510.78;;;8.75;87.60
84528;BME280;74768;51.152;6.196;2024-02-21T01:57:19;101505.66;;;8.69;87.99
84528;BME280;74768;51.152;6.196;2024-02-21T01:59:44;101503.03;;;8.69;87.31
84528;BME280;74768;51.152;6.196;2024-02-21T02:02:10;101494.16;;;8.71;87.27
84528;BME280;74768;51.152;6.196;2024-02-21T02:04:37;101487.22;;;8.69;87.02
84528;BME280;74768;51.152;6.196;2024-02-21T02:07:04;101482.88;;;8.66;87.44
84528;BME280;74768;51.152;6.196;2024-02-21T02:09:31;101477.50;;;8.72;87.34
84528;BME280;74768;51.152;6.196;2024-02-21T02:11:57;101481.00;;;8.73;86.85
84528;BME280;74768;51.152;6.196;2024-02-21T02:14:23;101483.66;;;8.70;88.00
84528;BME280;74768;51.152;6.196;2024-02-21T02:16:48;101480.31;;;8.63;88.32
84528;BME280;74768;51.152;6.196;2024-02-21T02:19:14;101485.56;;;8.63;87.47
84528;BME280;74768;51.152;6.196;2024-02-21T02:21:46;101479.44;;;8.63;87.85
84528;BME280;74768;51.152;6.196;2024-02-21T02:24:13;101481.19;;;8.62;88.58
84528;BME280;74768;51.152;6.196;2024-02-21T02:26:39;101482.19;;;8.58;88.33
84528;BME280;74768;51.152;6.196;2024-02-21T02:29:04;101488.44;;;8.52;88.54
84528;BME280;74768;51.152;6.196;2024-02-21T02:31:30;101483.94;;;8.57;89.02
84528;BME280;74768;51.152;6.196;2024-02-21T02:33:56;101496.09;;;8.63;88.35
84528;BME280;74768;51.152;6.196;2024-02-21T02:36:21;101483.91;;;8.59;88.35
84528;BME280;74768;51.152;6.196;2024-02-21T02:38:47;101485.78;;;8.54;88.22
84528;BME280;74768;51.152;6.196;2024-02-21T02:41:12;101487.59;;;8.50;88.77
84528;BME280;74768;51.152;6.196;2024-02-21T02:43:37;101474.53;;;8.47;89.25
84528;BME280;74768;51.152;6.196;2024-02-21T02:46:03;101466.38;;;8.58;88.33
84528;BME280;74768;51.152;6.196;2024-02-21T02:48:29;101463.00;;;8.53;88.79
84528;BME280;74768;51.152;6.196;2024-02-21T02:50:54;101455.13;;;8.51;89.30
84528;BME280;74768;51.152;6.196;2024-02-21T02:53:19;101455.09;;;8.53;88.48
84528;BME280;74768;51.152;6.196;2024-02-21T02:55:45;101451.75;;;8.45;88.92
84528;BME280;74768;51.152;6.196;2024-02-21T02:58:10;101450.16;;;8.38;89.28
84528;BME280;74768;51.152;6.196;2024-02-21T03:00:35;101453.66;;;8.38;89.82
84528;BME280;74768;51.152;6.196;2024-02-21T03:03:01;101458.91;;;8.38;89.80
84528;BME280;74768;51.152;6.196;2024-02-21T03:05:30;101443.06;;;8.41;88.74
84528;BME280;74768;51.152;6.196;2024-02-21T03:07:56;101450.13;;;8.39;89.80
84528;BME280;74768;51.152;6.196;2024-02-21T03:10:22;101433.38;;;8.43;89.33
84528;BME280;74768;51.152;6.196;2024-02-21T03:12:47;101430.63;;;8.48;89.50
84528;BME280;74768;51.152;6.196;2024-02-21T03:15:18;101419.28;;;8.47;88.86
84528;BME280;74768;51.152;6.196;2024-02-21T03:17:43;101413.16;;;8.45;88.63
84528;BME280;74768;51.152;6.196;2024-02-21T03:20:09;101427.09;;;8.49;88.31
84528;BME280;74768;51.152;6.196;2024-02-21T03:22:35;101429.78;;;8.47;88.81
84528;BME280;74768;51.152;6.196;2024-02-21T03:25:00;101420.91;;;8.53;86.32
84528;BME280;74768;51.152;6.196;2024-02-21T03:27:26;101409.47;;;8.54;86.49
84528;BME280;74768;51.152;6.196;2024-02-21T03:29:51;101415.56;;;8.56;87.34
84528;BME280;74768;51.152;6.196;2024-02-21T03:32:17;101412.97;;;8.54;86.95
84528;BME280;74768;51.152;6.196;2024-02-21T03:34:42;101409.50;;;8.52;87.10
84528;BME280;74768;51.152;6.196;2024-02-21T03:37:07;101406.94;;;8.49;86.51
84528;BME280;74768;51.152;6.196;2024-02-21T03:39:33;101403.44;;;8.49;85.92
84528;BME280;74768;51.152;6.196;2024-02-21T03:41:58;101411.16;;;8.56;85.94
84528;BME280;74768;51.152;6.196;2024-02-21T03:44:29;101404.09;;;8.58;85.77
84528;BME280;74768;51.152;6.196;2024-02-21T03:46:54;101405.84;;;8.59;84.91
84528;BME280;74768;51.152;6.196;2024-02-21T03:49:20;101406.72;;;8.60;84.85
84528;BME280;74768;51.152;6.196;2024-02-21T03:51:45;101402.34;;;8.59;85.48
84528;BME280;74768;51.152;6.196;2024-02-21T03:54:10;101398.88;;;8.57;85.34
84528;BME280;74768;51.152;6.196;2024-02-21T03:56:38;101388.53;;;8.48;86.31
84528;BME280;74768;51.152;6.196;2024-02-21T03:59:05;101386.03;;;8.42;86.36
84528;BME280;74768;51.152;6.196;2024-02-21T04:01:31;101379.84;;;8.46;85.87
84528;BME280;74768;51.152;6.196;2024-02-21T04:03:56;101379.88;;;8.43;86.33
84528;BME280;74768;51.152;6.196;2024-02-21T04:06:21;101373.78;;;8.41;87.06
84528;BME280;74768;51.152;6.196;2024-02-21T04:08:47;101376.41;;;8.41;87.15
84528;BME280;74768;51.152;6.196;2024-02-21T04:11:12;101370.25;;;8.42;86.19
84528;BME280;74768;51.152;6.196;2024-02-21T04:13:37;101361.44;;;8.44;85.87
84528;BME280;74768;51.152;6.196;2024-02-21T04:16:03;101375.38;;;8.48;86.18
84528;BME280;74768;51.152;6.196;2024-02-21T04:18:29;101366.59;;;8.49;85.31
84528;BME280;74768;51.152;6.196;2024-02-21T04:20:55;101370.13;;;8.48;85.51
84528;BME280;74768;51.152;6.196;2024-02-21T04:23:20;101365.78;;;8.47;85.31
84528;BME280;74768;51.152;6.196;2024-02-21T04:25:45;101360.47;;;8.48;86.08
84528;BME280;74768;51.152;6.196;2024-02-21T04:28:10;101358.88;;;8.41;86.11
84528;BME280;74768;51.152;6.196;2024-02-21T04:30:36;101358.16;;;8.35;87.28
84528;BME280;74768;51.152;6.196;2024-02-21T04:33:01;101359.97;;;8.33;87.10
84528;BME280;74768;51.152;6.196;2024-02-21T04:35:26;101352.13;;;8.28;87.69
84528;BME280;74768;51.152;6.196;2024-02-21T04:37:51;101348.59;;;8.29;87.42
84528;BME280;74768;51.152;6.196;2024-02-21T04:40:17;101355.69;;;8.26;88.08
84528;BME280;74768;51.152;6.196;2024-02-21T04:42:42;101359.25;;;8.23;88.54
84528;BME280;74768;51.152;6.196;2024-02-21T04:45:08;101360.91;;;8.27;87.83
84528;BME280;74768;51.152;6.196;2024-02-21T04:47:34;101353.75;;;8.35;87.80
84528;BME280;74768;51.152;6.196;2024-02-21T04:49:59;101346.84;;;8.31;88.46
84528;BME280;74768;51.152;6.196;2024-02-21T04:52:25;101351.28;;;8.26;88.80
84528;BME280;74768;51.152;6.196;2024-02-21T04:54:50;101352.09;;;8.30;89.09
84528;BME280;74768;51.152;6.196;2024-02-21T04:57:16;101354.72;;;8.33;88.18
84528;BME280;74768;51.152;6.196;2024-02-21T04:59:45;101353.84;;;8.29;88.75
84528;BME280;74768;51.152;6.196;2024-02-21T05:02:11;101363.78;;;8.16;88.99
84528;BME280;74768;51.152;6.196;2024-02-21T05:04:36;101347.28;;;8.08;89.35
84528;BME280;74768;51.152;6.196;2024-02-21T05:07:03;101355.19;;;8.08;89.85
84528;BME280;74768;51.152;6.196;2024-02-21T05:09:29;101359.63;;;8.05;90.12
84528;BME280;74768;51.152;6.196;2024-02-21T05:11:55;101363.22;;;8.01;89.85
84528;BME280;74768;51.152;6.196;2024-02-21T05:14:20;101364.06;;;8.03;90.49
84528;BME280;74768;51.152;6.196;2024-02-21T05:16:45;101356.09;;;8.06;90.09
84528;BME280;74768;51.152;6.196;2024-02-21T05:19:10;101348.31;;;8.01;89.84
84528;BME280;74768;51.152;6.196;2024-02-21T05:21:36;101352.72;;;7.99;90.03
84528;BME280;74768;51.152;6.196;2024-02-21T05:24:01;101348.28;;;8.03;89.79
84528;BME280;74768;51.152;6.196;2024-02-21T05:26:27;101338.56;;;8.06;89.86
84528;BME280;74768;51.152;6.196;2024-02-21T05:28:53;101348.16;;;8.09;89.40
84528;BME280;74768;51.152;6.196;2024-02-21T05:31:19;101340.31;;;8.07;89.38
84528;BME280;74768;51.152;6.196;2024-02-21T05:33:45;101343.78;;;8.09;88.91
84528;BME280;74768;51.152;6.196;2024-02-21T05:36:11;101341.97;;;8.11;89.18
84528;BME280;74768;51.152;6.196;2024-02-21T05:38:36;101338.56;;;8.06;89.44
84528;BME280;74768;51.152;6.196;2024-02-21T05:41:02;101337.81;;;8.01;89.83
84528;BME280;74768;51.152;6.196;2024-02-21T05:43:27;101338.56;;;8.06;90.07
84528;BME280;74768;51.152;6.196;2024-02-21T05:45:53;101324.56;;;8.06;89.40
84528;BME280;74768;51.152;6.196;2024-02-21T05:48:18;101324.50;;;8.09;88.75
84528;BME280;74768;51.152;6.196;2024-02-21T05:50:43;101311.28;;;8.12;89.62
84528;BME280;74768;51.152;6.196;2024-02-21T05:53:09;101307.91;;;8.05;89.78
84528;BME280;74768;51.152;6.196;2024-02-21T05:55:35;101305.41;;;7.99;89.76
84528;BME280;74768;51.152;6.196;2024-02-21T05:58:00;101300.25;;;7.96;89.37
84528;BME280;74768;51.152;6.196;2024-02-21T06:00:25;101301.06;;;7.97;89.74
84528;BME280;74768;51.152;6.196;2024-02-21T06:02:51;101302.03;;;7.94;89.50
84528;BME280;74768;51.152;6.196;2024-02-21T06:05:16;101303.59;;;8.03;90.21
84528;BME280;74768;51.152;6.196;2024-02-21T06:07:41;101307.78;;;8.11;89.28
84528;BME280;74768;51.152;6.196;2024-02-21T06:10:07;101303.59;;;8.03;89.52
84528;BME280;74768;51.152;6.196;2024-02-21T06:12:33;101307.09;;;8.03;88.90
84528;BME280;74768;51.152;6.196;2024-02-21T06:14:59;101300.19;;;7.98;89.88
84528;BME280;74768;51.152;6.196;2024-02-21T06:17:24;101307.13;;;8.02;90.66
84528;BME280;74768;51.152;6.196;2024-02-21T06:19:49;101300.13;;;8.02;89.46
84528;BME280;74768;51.152;6.196;2024-02-21T06:22:15;101299.22;;;8.03;89.17
84528;BME280;74768;51.152;6.196;2024-02-21T06:24:40;101296.63;;;8.02;90.10
84528;BME280;74768;51.152;6.196;2024-02-21T06:27:06;101290.50;;;8.01;89.51
84528;BME280;74768;51.152;6.196;2024-02-21T06:29:32;101280.81;;;8.03;89.02
84528;BME280;74768;51.152;6.196;2024-02-21T06:31:57;101279.84;;;8.07;88.90
84528;BME280;74768;51.152;6.196;2024-02-21T06:34:23;101284.19;;;8.08;88.99
84528;BME280;74768;51.152;6.196;2024-02-21T06:36:49;101275.44;;;8.08;88.88
84528;BME280;74768;51.152;6.196;2024-02-21T06:39:15;101265.78;;;8.10;89.25
84528;BME280;74768;51.152;6.196;2024-02-21T06:41:40;101264.91;;;8.09;88.65
84528;BME280;74768;51.152;6.196;2024-02-21T06:44:06;101272.63;;;8.17;88.22
84528;BME280;74768;51.152;6.196;2024-02-21T06:46:31;101261.88;;;8.26;88.23
84528;BME280;74768;51.152;6.196;2024-02-21T06:49:00;101253.91;;;8.29;88.37
84528;BME280;74768;51.152;6.196;2024-02-21T06:51:26;101253.25;;;8.19;88.33
84528;BME280;74768;51.152;6.196;2024-02-21T06:53:51;101248.97;;;8.15;88.21
84528;BME280;74768;51.152;6.196;2024-02-21T06:56:17;101255.88;;;8.19;88.66
84528;BME280;74768;51.152;6.196;2024-02-21T06:58:42;101271.72;;;8.18;88.31
84528;BME280;74768;51.152;6.196;2024-02-21T07:01:08;101266.47;;;8.18;88.54
84528;BME280;74768;51.152;6.196;2024-02-21T07:03:33;101257.75;;;8.16;89.07
84528;BME280;74768;51.152;6.196;2024-02-21T07:05:59;101265.44;;;8.24;88.45
84528;BME280;74768;51.152;6.196;2024-02-21T07:08:24;101269.75;;;8.26;88.80
84528;BME280;74768;51.152;6.196;2024-02-21T07:10:49;101262.00;;;8.20;87.81
84528;BME280;74768;51.152;6.196;2024-02-21T07:13:15;101263.03;;;8.14;88.33
84528;BME280;74768;51.152;6.196;2024-02-21T07:15:41;101266.38;;;8.21;87.90
84528;BME280;74768;51.152;6.196;2024-02-21T07:18:07;101273.34;;;8.24;88.77
84528;BME280;74768;51.152;6.196;2024-02-21T07:20:32;101283.03;;;8.21;87.29
84528;BME280;74768;51.152;6.196;2024-02-21T07:23:02;101269.88;;;8.21;87.56
84528;BME280;74768;51.152;6.196;2024-02-21T07:25:27;101281.97;;;8.32;87.35
84528;BME280;74768;51.152;6.196;2024-02-21T07:27:53;101273.19;;;8.30;87.76
84528;BME280;74768;51.152;6.196;2024-02-21T07:30:18;101273.19;;;8.30;87.28
84528;BME280;74768;51.152;6.196;2024-02-21T07:32:44;101271.47;;;8.29;87.40
84528;BME280;74768;51.152;6.196;2024-02-21T07:35:09;101267.06;;;8.29;87.82
84528;BME280;74768;51.152;6.196;2024-02-21T07:37:36;101261.78;;;8.32;87.83
84528;BME280;74768;51.152;6.196;2024-02-21T07:40:06;101255.59;;;8.33;88.42
84528;BME280;74768;51.152;6.196;2024-02-21T07:42:31;101248.66;;;8.31;88.46
84528;BME280;74768;51.152;6.196;2024-02-21T07:44:56;101247.72;;;8.33;88.36
84528;BME280;74768;51.152;6.196;2024-02-21T07:47:22;101245.06;;;8.35;88.64
84528;BME280;74768;51.152;6.196;2024-02-21T07:49:48;101247.53;;;8.41;88.21
84528;BME280;74768;51.152;6.196;2024-02-21T07:52:14;101240.50;;;8.41;87.23
84528;BME280;74768;51.152;6.196;2024-02-21T07:54:40;101240.56;;;8.40;87.37
84528;BME280;74768;51.152;6.196;2024-02-21T07:57:06;101243.13;;;8.41;87.93
84528;BME280;74768;51.152;6.196;2024-02-21T07:59:32;101236.03;;;8.46;85.91
84528;BME280;74768;51.152;6.196;2024-02-21T08:01:58;101236.78;;;8.50;86.54
84528;BME280;74768;51.152;6.196;2024-02-21T08:04:23;101225.38;;;8.51;86.55
84528;BME280;74768;51.152;6.196;2024-02-21T08:06:55;101216.66;;;8.49;86.26
84528;BME280;74768;51.152;6.196;2024-02-21T08:09:26;101220.22;;;8.46;86.10
84528;BME280;74768;51.152;6.196;2024-02-21T08:11:52;101204.31;;;8.51;85.61
84528;BME280;74768;51.152;6.196;2024-02-21T08:14:17;101197.28;;;8.53;85.77
84528;BME280;74768;51.152;6.196;2024-02-21T08:16:42;101191.28;;;8.46;86.02
84528;BME280;74768;51.152;6.196;2024-02-21T08:19:08;101185.00;;;8.52;85.58
84528;BME280;74768;51.152;6.196;2024-02-21T08:21:33;101182.09;;;8.63;83.08
84528;BME280;74768;51.152;6.196;2024-02-21T08:23:58;101180.31;;;8.63;83.83
84528;BME280;74768;51.152;6.196;2024-02-21T08:26:24;101180.47;;;8.58;83.70
84528;BME280;74768;51.152;6.196;2024-02-21T08:28:52;101176.09;;;8.57;85.21
84528;BME280;74768;51.152;6.196;2024-02-21T08:31:21;101175.06;;;8.63;83.23
84528;BME280;74768;51.152;6.196;2024-02-21T08:33:48;101164.47;;;8.66;83.56
84528;BME280;74768;51.152;6.196;2024-02-21T08:36:19;101164.25;;;8.75;83.47
84528;BME280;74768;51.152;6.196;2024-02-21T08:38:45;101163.34;;;8.76;83.27
84528;BME280;74768;51.152;6.196;2024-02-21T08:41:11;101150.00;;;8.82;82.52
84528;BME280;74768;51.152;6.196;2024-02-21T08:43:36;101138.25;;;8.94;83.34
84528;BME280;74768;51.152;6.196;2024-02-21T08:46:01;101133.63;;;9.04;81.17
84528;BME280;74768;51.152;6.196;2024-02-21T08:48:27;101131.81;;;9.06;82.21
84528;BME280;74768;51.152;6.196;2024-02-21T08:50:52;101135.94;;;9.14;82.24
84528;BME280;74768;51.152;6.196;2024-02-21T08:53:19;101125.34;;;9.16;80.59
84528;BME280;74768;51.152;6.196;2024-02-21T08:55:44;101117.00;;;9.31;80.03
84528;BME280;74768;51.152;6.196;2024-02-21T08:58:11;101118.97;;;9.24;79.80
84528;BME280;74768;51.152;6.196;2024-02-21T09:00:36;101110.22;;;9.22;81.61
84528;BME280;74768;51.152;6.196;2024-02-21T09:03:01;101105.75;;;9.26;80.08
84528;BME280;74768;51.152;6.196;2024-02-21T09:05:26;101097.03;;;9.24;80.86
84528;BME280;74768;51.152;6.196;2024-02-21T09:07:52;101094.44;;;9.22;80.14
84528;BME280;74768;51.152;6.196;2024-02-21T09:10:17;101090.72;;;9.29;80.68
84528;BME280;74768;51.152;6.196;2024-02-21T09:12:42;101081.88;;;9.32;80.12
84528;BME280;74768;51.152;6.196;2024-02-21T09:15:09;101079.19;;;9.33;81.10
84528;BME280;74768;51.152;6.196;2024-02-21T09:17:34;101072.25;;;9.29;80.54
84528;BME280;74768;51.152;6.196;2024-02-21T09:19:59;101065.19;;;9.31;78.87
84528;BME280;74768;51.152;6.196;2024-02-21T09:22:28;101060.41;;;9.44;78.95
84528;BME280;74768;51.152;6.196;2024-02-21T09:24:54;101053.13;;;9.52;77.42
84528;BME280;74768;51.152;6.196;2024-02-21T09:27:19;101050.81;;;9.69;78.25
84528;BME280;74768;51.152;6.196;2024-02-21T09:29:44;101049.56;;;9.81;77.02
84528;BME280;74768;51.152;6.196;2024-02-21T09:32:09;101051.88;;;9.90;78.55
84528;BME280;74768;51.152;6.196;2024-02-21T09:34:35;101051.34;;;10.07;76.64
84528;BME280;74768;51.152;6.196;2024-02-21T09:37:00;101045.91;;;10.11;76.15
84528;BME280;74768;51.152;6.196;2024-02-21T09:39:25;101045.50;;;10.24;74.77
84528;BME280;74768;51.152;6.196;2024-02-21T09:41:58;101045.06;;;10.09;76.06
84528;BME280;74768;51.152;6.196;2024-02-21T09:44:24;101044.97;;;10.12;76.64
84528;BME280;74768;51.152;6.196;2024-02-21T09:46:58;101050.63;;;10.28;76.15
84528;BME280;74768;51.152;6.196;2024-02-21T09:49:29;101036.41;;;10.32;75.30
84528;BME280;74768;51.152;6.196;2024-02-21T09:51:57;101040.47;;;10.42;74.54
84528;BME280;74768;51.152;6.196;2024-02-21T09:54:23;101036.00;;;10.44;74.40
84528;BME280;74768;51.152;6.196;2024-02-21T09:56:49;101045.28;;;10.54;75.84
84528;BME280;74768;51.152;6.196;2024-02-21T09:59:16;101041.38;;;10.66;74.15
84528;BME280;74768;51.152;6.196;2024-02-21T10:01:42;101017.81;;;10.83;74.89
84528;BME280;74768;51.152;6.196;2024-02-21T10:04:08;101023.56;;;10.95;72.55
84528;BME280;74768;51.152;6.196;2024-02-21T10:06:34;101018.69;;;11.07;71.97
84528;BME280;74768;51.152;6.196;2024-02-21T10:08:59;101007.81;;;11.15;72.02
84528;BME280;74768;51.152;6.196;2024-02-21T10:11:25;101011.06;;;11.21;71.59
84528;BME280;74768;51.152;6.196;2024-02-21T10:13:51;101004.22;;;11.17;71.06
84528;BME280;74768;51.152;6.196;2024-02-21T10:16:16;101001.84;;;11.10;72.01
84528;BME280;74768;51.152;6.196;2024-02-21T10:18:42;100997.66;;;11.04;72.51
84528;BME280;74768;51.152;6.196;2024-02-21T10:21:07;101000.28;;;11.04;71.69
84528;BME280;74768;51.152;6.196;2024-02-21T10:23:46;100992.03;;;10.90;72.88
84528;BME280;74768;51.152;6.196;2024-02-21T10:26:12;100988.03;;;10.80;72.76
84528;BME280;74768;51.152;6.196;2024-02-21T10:28:38;100967.06;;;10.99;72.94
84528;BME280;74768;51.152;6.196;2024-02-21T10:31:08;100967.28;;;11.16;71.46
84528;BME280;74768;51.152;6.196;2024-02-21T10:33:34;100957.97;;;11.27;72.18
84528;BME280;74768;51.152;6.196;2024-02-21T10:36:10;100944.19;;;11.41;71.08
84528;BME280;74768;51.152;6.196;2024-02-21T10:38:37;100952.13;;;11.19;70.93
84528;BME280;74768;51.152;6.196;2024-02-21T10:41:04;100943.03;;;11.05;71.21
84528;BME280;74768;51.152;6.196;2024-02-21T10:43:30;100935.63;;;11.14;72.00
84528;BME280;74768;51.152;6.196;2024-02-21T10:46:00;100932.00;;;11.17;72.51
84528;BME280;74768;51.152;6.196;2024-02-21T10:48:36;100928.41;;;11.40;71.08
84528;BME280;74768;51.152;6.196;2024-02-21T10:53:57;100902.41;;;11.71;69.10
84528;BME280;74768;51.152;6.196;2024-02-21T10:56:34;100892.53;;;11.96;69.79
84528;BME280;74768;51.152;6.196;2024-02-21T10:59:02;100891.63;;;12.16;68.97
84528;BME280;74768;51.152;6.196;2024-02-21T11:01:28;100868.44;;;12.21;69.55
84528;BME280;74768;51.152;6.196;2024-02-21T11:03:58;100861.38;;;12.22;68.51
84528;BME280;74768;51.152;6.196;2024-02-21T11:06:24;100856.59;;;11.91;69.88
84528;BME280;74768;51.152;6.196;2024-02-21T11:09:07;100847.59;;;11.76;70.78
84528;BME280;74768;51.152;6.196;2024-02-21T11:11:37;100829.50;;;11.86;70.41
84528;BME280;74768;51.152;6.196;2024-02-21T11:14:18;100825.47;;;11.97;69.24
84528;BME280;74768;51.152;6.196;2024-02-21T11:16:44;100810.06;;;12.05;69.42
84528;BME280;74768;51.152;6.196;2024-02-21T11:19:20;100796.59;;;12.12;70.24
84528;BME280;74768;51.152;6.196;2024-02-21T11:21:46;100792.28;;;12.09;71.02
84528;BME280;74768;51.152;6.196;2024-02-21T11:24:13;100795.56;;;12.14;69.76
84528;BME280;74768;51.152;6.196;2024-02-21T11:26:39;100796.22;;;12.38;69.05
84528;BME280;74768;51.152;6.196;2024-02-21T11:29:07;100786.75;;;12.51;67.81
84528;BME280;74768;51.152;6.196;2024-02-21T11:31:44;100769.13;;;12.69;68.17
84528;BME280;74768;51.152;6.196;2024-02-21T11:34:11;100765.06;;;12.62;66.91
84528;BME280;74768;51.152;6.196;2024-02-21T11:36:46;100771.16;;;12.64;66.42
84528;BME280;74768;51.152;6.196;2024-02-21T11:39:12;100777.00;;;12.87;67.00
84528;BME280;74768;51.152;6.196;2024-02-21T11:41:38;100781.13;;;12.93;65.95
84528;BME280;74768;51.152;6.196;2024-02-21T11:44:03;100783.47;;;13.18;66.73
84528;BME280;74768;51.152;6.196;2024-02-21T11:46:29;100772.69;;;13.38;66.39
84528;BME280;74768;51.152;6.196;2024-02-21T11:48:54;100766.91;;;13.30;65.77
84528;BME280;74768;51.152;6.196;2024-02-21T11:51:26;100758.75;;;13.35;63.63
84528;BME280;74768;51.152;6.196;2024-02-21T11:53:52;100758.19;;;13.28;65.78
84528;BME280;74768;51.152;6.196;2024-02-21T11:56:18;100747.34;;;13.33;66.44
84528;BME280;74768;51.152;6.196;2024-02-21T11:58:48;100738.66;;;13.46;65.42
84528;BME280;74768;51.152;6.196;2024-02-21T12:01:14;100726.53;;;13.42;65.75
84528;BME280;74768;51.152;6.196;2024-02-21T12:03:39;100718.13;;;13.34;64.66
84528;BME280;74768;51.152;6.196;2024-02-21T12:06:06;100715.47;;;13.34;65.23
84528;BME280;74768;51.152;6.196;2024-02-21T12:08:42;100705.47;;;13.39;64.47
84528;BME280;74768;51.152;6.196;2024-02-21T12:11:20;100723.94;;;13.41;64.00
84528;BME280;74768;51.152;6.196;2024-02-21T12:13:46;100713.19;;;13.44;63.65
84528;BME280;74768;51.152;6.196;2024-02-21T12:16:15;100702.72;;;13.41;65.12
84528;BME280;74768;51.152;6.196;2024-02-21T12:18:41;100690.63;;;13.19;65.02
84528;BME280;74768;51.152;6.196;2024-02-21T12:21:06;100683.75;;;13.15;65.00
84528;BME280;74768;51.152;6.196;2024-02-21T12:23:32;100687.63;;;13.08;65.36
84528;BME280;74768;51.152;6.196;2024-02-21T12:25:59;100678.22;;;13.20;64.20
84528;BME280;74768;51.152;6.196;2024-02-21T12:28:24;100668.81;;;13.30;64.61
84528;BME280;74768;51.152;6.196;2024-02-21T12:30:49;100664.59;;;13.43;64.39
84528;BME280;74768;51.152;6.196;2024-02-21T12:33:15;100655.97;;;13.55;62.88
84528;BME280;74768;51.152;6.196;2024-02-21T12:35:40;100651.78;;;13.51;62.98
84528;BME280;74768;51.152;6.196;2024-02-21T12:38:06;100643.38;;;13.59;63.24
84528;BME280;74768;51.152;6.196;2024-02-21T12:40:31;100638.72;;;13.80;64.86
84528;BME280;74768;51.152;6.196;2024-02-21T12:42:59;100632.78;;;13.90;61.80
84528;BME280;74768;51.152;6.196;2024-02-21T12:45:25;100620.81;;;13.99;62.88
84528;BME280;74768;51.152;6.196;2024-02-21T12:47:50;100610.53;;;13.93;62.54
84528;BME280;74768;51.152;6.196;2024-02-21T12:50:16;100619.44;;;13.92;63.54
84528;BME280;74768;51.152;6.196;2024-02-21T12:52:41;100614.81;;;13.95;62.34
84528;BME280;74768;51.152;6.196;2024-02-21T12:55:07;100610.47;;;13.94;63.88